Time;durP1;ratioP1;P1;durP2;ratioP2;P2;SDS_P1;SDS_P2;PMS_P1;PMS_P2;Temp;Humidity;BMP_temperature;BMP_pressure;BME280_temperature;BME280_humidity;BME280_pressure;Samples;Min_cycle;Max_cycle;Signal;HPM_P1;HPM_P2
2022/04/19 00:00:38;;;;;;;;;;;8.50;99.90;;;;;;5073123;28;19935;-82
2022/04/19 00:03:05;;;;;;;;;;;8.50;99.90;;;;;;5065491;28;20291;-82
2022/04/19 00:05:32;;;;;;;;;;;8.60;99.90;;;;;;5073305;28;20023;-83
2022/04/19 00:07:59;;;;;;;;;;;8.50;99.90;;;;;;5063062;28;19929;-83
2022/04/19 00:10:28;;;;;;;;;;;8.50;99.90;;;;;;5063644;28;19929;-83
2022/04/19 00:12:54;;;;;;;;;;;8.50;99.90;;;;;;5070549;28;19956;-87
2022/04/19 00:15:21;;;;;;;;;;;8.50;99.90;;;;;;5074351;28;20395;-82
2022/04/19 00:17:48;;;;;;;;;;;8.50;99.90;;;;;;5071487;28;20390;-82
2022/04/19 00:20:15;;;;;;;;;;;8.50;99.90;;;;;;5060352;28;19924;-82
2022/04/19 00:22:41;;;;;;;;;;;8.50;99.90;;;;;;5074020;28;20372;-82
2022/04/19 00:25:08;;;;;;;;;;;8.40;99.90;;;;;;5068445;28;20384;-82
2022/04/19 00:27:34;;;;;;;;;;;8.40;99.90;;;;;;5065963;28;20359;-84
2022/04/19 00:30:01;;;;;;;;;;;8.40;99.90;;;;;;5072672;28;19932;-82
2022/04/19 00:32:27;;;;;;;;;;;8.40;99.90;;;;;;5072714;28;19931;-85
2022/04/19 00:34:54;;;;;;;;;;;8.30;99.90;;;;;;5098245;28;20384;-82
2022/04/19 00:37:21;;;;;;;;;;;8.40;99.90;;;;;;5056270;28;19925;-82
2022/04/19 00:39:48;;;;;;;;;;;8.30;99.90;;;;;;5070684;28;19924;-82
2022/04/19 00:42:14;;;;;;;;;;;8.30;99.90;;;;;;5064596;28;19925;-80
2022/04/19 00:44:41;;;;;;;;;;;8.30;99.90;;;;;;5067027;28;19929;-82
2022/04/19 00:47:09;;;;;;;;;;;8.30;99.90;;;;;;5071863;28;19931;-82
2022/04/19 00:49:36;;;;;;;;;;;8.30;99.90;;;;;;5067268;28;19979;-82
2022/04/19 00:52:02;;;;;;;;;;;8.30;99.90;;;;;;5072007;28;20364;-82
2022/04/19 00:54:29;;;;;;;;;;;8.20;99.90;;;;;;5072402;28;20287;-82
2022/04/19 00:56:55;;;;;;;;;;;8.20;99.90;;;;;;5073086;28;20291;-82
2022/04/19 00:59:22;;;;;;;;;;;8.10;99.90;;;;;;5067933;28;19931;-83
2022/04/19 01:01:49;;;;;;;;;;;8.10;99.90;;;;;;5062530;28;20447;-83
2022/04/19 01:04:15;;;;;;;;;;;8.10;99.90;;;;;;5071901;28;19924;-81
2022/04/19 01:06:42;;;;;;;;;;;8.00;99.90;;;;;;5071458;28;19935;-80
2022/04/19 01:09:08;;;;;;;;;;;8.00;99.90;;;;;;5072684;28;20291;-81
2022/04/19 01:14:19;;;;;;;;;;;7.90;99.90;;;;;;5065492;28;19925;-82
2022/04/19 01:16:46;;;;;;;;;;;7.90;99.90;;;;;;5069280;28;19930;-81
2022/04/19 01:19:14;;;;;;;;;;;7.80;99.90;;;;;;5071113;28;19925;-81
2022/04/19 01:21:41;;;;;;;;;;;7.80;99.90;;;;;;5072282;28;19928;-80
2022/04/19 01:24:08;;;;;;;;;;;7.80;99.90;;;;;;5061897;28;19931;-81
2022/04/19 01:26:34;;;;;;;;;;;7.80;99.90;;;;;;5104429;28;19931;-82
2022/04/19 01:29:01;;;;;;;;;;;7.80;99.90;;;;;;5070977;28;19948;-87
2022/04/19 01:31:27;;;;;;;;;;;7.90;99.90;;;;;;5064323;28;19925;-81
2022/04/19 01:33:56;;;;;;;;;;;7.90;99.90;;;;;;5071858;28;19925;-81
2022/04/19 01:36:22;;;;;;;;;;;7.90;99.90;;;;;;5072033;28;19975;-80
2022/04/19 01:38:49;;;;;;;;;;;7.90;99.90;;;;;;5072138;28;19925;-81
2022/04/19 01:41:15;;;;;;;;;;;7.90;99.90;;;;;;5070750;28;19932;-81
2022/04/19 01:43:44;;;;;;;;;;;7.80;99.90;;;;;;5064347;28;19931;-81
2022/04/19 01:46:11;;;;;;;;;;;7.80;99.90;;;;;;5070780;28;19932;-81
2022/04/19 01:48:37;;;;;;;;;;;7.80;99.90;;;;;;5060643;28;19999;-82
2022/04/19 01:51:04;;;;;;;;;;;7.80;99.90;;;;;;5067900;28;20390;-85
2022/04/19 01:53:30;;;;;;;;;;;7.80;99.90;;;;;;5071702;28;19935;-81
2022/04/19 01:55:57;;;;;;;;;;;7.70;99.90;;;;;;5072341;28;19936;-81
2022/04/19 01:58:23;;;;;;;;;;;7.70;99.90;;;;;;5067526;28;19921;-82
2022/04/19 02:00:50;;;;;;;;;;;7.60;99.90;;;;;;5065271;28;20372;-82
2022/04/19 02:03:17;;;;;;;;;;;7.60;99.90;;;;;;5070644;28;19925;-81
2022/04/19 02:05:44;;;;;;;;;;;7.70;99.90;;;;;;5068032;28;19925;-81
2022/04/19 02:08:10;;;;;;;;;;;7.60;99.90;;;;;;5070994;28;19934;-81
2022/04/19 02:10:37;;;;;;;;;;;7.50;99.90;;;;;;5070422;28;19925;-81
2022/04/19 02:13:03;;;;;;;;;;;7.40;99.90;;;;;;5068766;28;19932;-87
2022/04/19 02:15:31;;;;;;;;;;;7.40;99.90;;;;;;5062360;28;20372;-81
2022/04/19 02:17:58;;;;;;;;;;;7.40;99.90;;;;;;5070871;28;19925;-81
2022/04/19 02:20:25;;;;;;;;;;;7.40;99.90;;;;;;5062400;28;19975;-80
2022/04/19 02:22:52;;;;;;;;;;;7.40;99.90;;;;;;5063704;28;19958;-81
2022/04/19 02:25:18;;;;;;;;;;;7.40;99.90;;;;;;5061199;28;20268;-81
2022/04/19 02:27:45;;;;;;;;;;;7.40;99.90;;;;;;5070318;28;19925;-81
2022/04/19 02:30:14;;;;;;;;;;;7.30;99.90;;;;;;5068430;28;20362;-81
2022/04/19 02:32:40;;;;;;;;;;;7.30;99.90;;;;;;5068853;28;19929;-81
2022/04/19 02:35:07;;;;;;;;;;;7.30;99.90;;;;;;5071384;28;19925;-85
2022/04/19 02:37:34;;;;;;;;;;;7.30;99.90;;;;;;5069395;28;19967;-81
2022/04/19 02:40:01;;;;;;;;;;;7.30;99.90;;;;;;5071390;28;19928;-81
2022/04/19 02:42:27;;;;;;;;;;;7.30;99.90;;;;;;5069951;28;19937;-81
2022/04/19 02:44:54;;;;;;;;;;;7.30;99.90;;;;;;5060599;28;19930;-80
2022/04/19 02:47:20;;;;;;;;;;;7.20;99.90;;;;;;5069132;28;19932;-81
2022/04/19 02:49:47;;;;;;;;;;;7.20;99.90;;;;;;5071825;28;19924;-81
2022/04/19 02:52:13;;;;;;;;;;;7.10;99.90;;;;;;5068868;28;19928;-82
2022/04/19 02:54:40;;;;;;;;;;;7.10;99.90;;;;;;5068376;28;19924;-81
2022/04/19 02:57:06;;;;;;;;;;;7.10;99.90;;;;;;5070483;28;19925;-86
2022/04/19 02:59:33;;;;;;;;;;;7.00;99.90;;;;;;5057907;28;19931;-82
2022/04/19 03:02:00;;;;;;;;;;;7.00;99.90;;;;;;5065133;28;19931;-81
2022/04/19 03:04:26;;;;;;;;;;;7.00;99.90;;;;;;5074997;28;19930;-81
2022/04/19 03:06:53;;;;;;;;;;;7.00;99.90;;;;;;5074745;28;19932;-81
2022/04/19 03:09:19;;;;;;;;;;;7.00;99.90;;;;;;5073569;28;20364;-81
2022/04/19 03:11:46;;;;;;;;;;;6.90;99.90;;;;;;5066345;28;19925;-81
2022/04/19 03:14:12;;;;;;;;;;;6.90;99.90;;;;;;5070339;28;19930;-81
2022/04/19 03:16:39;;;;;;;;;;;6.90;99.90;;;;;;5074850;28;19924;-83
2022/04/19 03:19:05;;;;;;;;;;;6.80;99.90;;;;;;5061996;28;19932;-80
2022/04/19 03:21:32;;;;;;;;;;;6.80;99.90;;;;;;5069162;28;20020;-81
2022/04/19 03:29:27;;;;;;;;;;;6.70;99.90;;;;;;5073018;28;20447;-81
2022/04/19 03:31:55;;;;;;;;;;;6.70;99.90;;;;;;5073594;28;20298;-84
2022/04/19 03:34:22;;;;;;;;;;;6.70;99.90;;;;;;5073132;28;19971;-76
2022/04/19 03:36:48;;;;;;;;;;;6.60;99.90;;;;;;5075134;28;20328;-82
2022/04/19 03:39:15;;;;;;;;;;;6.60;99.90;;;;;;5070990;28;20359;-81
2022/04/19 03:41:41;;;;;;;;;;;6.60;99.90;;;;;;5073638;28;20406;-82
2022/04/19 03:44:08;;;;;;;;;;;6.60;99.90;;;;;;5075140;28;19924;-81
2022/04/19 03:47:07;;;;;;;;;;;6.60;99.90;;;;;;5070026;28;19928;-80
2022/04/19 03:49:22;;;;;;;;;;;6.50;99.90;;;;;;5104188;28;20310;-81
2022/04/19 03:51:48;;;;;;;;;;;6.50;99.90;;;;;;5073713;28;20287;-81
2022/04/19 03:54:15;;;;;;;;;;;6.50;99.90;;;;;;5072670;28;20277;-81
2022/04/19 03:56:41;;;;;;;;;;;6.50;99.90;;;;;;5073820;28;19928;-82
2022/04/19 03:59:09;;;;;;;;;;;6.40;99.90;;;;;;5074545;28;19931;-80
2022/04/19 04:01:36;;;;;;;;;;;6.40;99.90;;;;;;5065551;28;19924;-81
2022/04/19 04:04:02;;;;;;;;;;;6.40;99.90;;;;;;5070882;28;19940;-81
2022/04/19 04:06:29;;;;;;;;;;;6.40;99.90;;;;;;5070179;28;19924;-81
2022/04/19 04:08:55;;;;;;;;;;;6.40;99.90;;;;;;5068022;28;19924;-81
2022/04/19 04:11:22;;;;;;;;;;;6.50;99.90;;;;;;5072840;28;19931;-82
2022/04/19 04:13:49;;;;;;;;;;;6.50;99.90;;;;;;5074588;28;19925;-81
2022/04/19 04:16:15;;;;;;;;;;;6.50;99.90;;;;;;5064237;28;19999;-81
2022/04/19 04:18:42;;;;;;;;;;;6.50;99.90;;;;;;5072898;28;20388;-81
2022/04/19 04:21:08;;;;;;;;;;;6.50;99.90;;;;;;5073025;28;19968;-81
2022/04/19 04:23:35;;;;;;;;;;;6.50;99.90;;;;;;5062689;28;19932;-81
2022/04/19 04:26:01;;;;;;;;;;;6.50;99.90;;;;;;5072997;28;19929;-80
2022/04/19 04:28:28;;;;;;;;;;;6.50;99.90;;;;;;5072108;28;19932;-81
2022/04/19 04:30:54;;;;;;;;;;;6.40;99.90;;;;;;5072337;28;19932;-81
2022/04/19 04:33:21;;;;;;;;;;;6.40;99.90;;;;;;5062704;28;19928;-81
2022/04/19 04:35:48;;;;;;;;;;;6.40;99.90;;;;;;5060165;28;19925;-79
2022/04/19 04:38:14;;;;;;;;;;;6.30;99.90;;;;;;5072023;28;19925;-85
2022/04/19 04:40:41;;;;;;;;;;;6.30;99.90;;;;;;5065436;28;20014;-81
2022/04/19 04:43:08;;;;;;;;;;;6.40;99.90;;;;;;5072958;28;19932;-81
2022/04/19 04:45:34;;;;;;;;;;;6.60;99.90;;;;;;5072635;28;19935;-80
2022/04/19 04:50:45;;;;;;;;;;;7.10;99.90;;;;;;5069202;28;19932;-81
2022/04/19 04:53:12;;;;;;;;;;;7.20;99.90;;;;;;5073445;28;19928;-80
2022/04/19 04:55:38;;;;;;;;;;;7.20;99.90;;;;;;5070544;28;20444;-81
2022/04/19 04:58:05;;;;;;;;;;;7.10;99.90;;;;;;5073218;28;19925;-82
2022/04/19 05:00:31;;;;;;;;;;;7.00;99.90;;;;;;5070851;28;20390;-81
2022/04/19 05:02:58;;;;;;;;;;;7.00;99.90;;;;;;5064143;28;19925;-81
2022/04/19 05:05:24;;;;;;;;;;;7.00;99.90;;;;;;5062907;28;20343;-82
2022/04/19 05:07:52;;;;;;;;;;;7.00;99.90;;;;;;5072302;28;19931;-82
2022/04/19 05:10:18;;;;;;;;;;;7.10;99.90;;;;;;5070437;28;20015;-82
2022/04/19 05:12:45;;;;;;;;;;;7.10;99.90;;;;;;5052894;28;19931;-81
2022/04/19 05:15:12;;;;;;;;;;;7.20;99.90;;;;;;5053123;28;20019;-85
2022/04/19 05:17:38;;;;;;;;;;;7.30;99.90;;;;;;5103324;28;19986;-81
2022/04/19 05:20:05;;;;;;;;;;;7.40;99.90;;;;;;5064683;28;19925;-81
2022/04/19 05:22:31;;;;;;;;;;;7.50;99.90;;;;;;5069439;28;19936;-81
2022/04/19 05:24:58;;;;;;;;;;;7.60;99.90;;;;;;5062277;28;19925;-81
2022/04/19 05:27:25;;;;;;;;;;;7.70;99.90;;;;;;5070872;28;19925;-81
2022/04/19 05:29:51;;;;;;;;;;;7.80;99.90;;;;;;5061983;28;19932;-80
2022/04/19 05:32:18;;;;;;;;;;;7.80;99.90;;;;;;5107092;27;19928;-82
2022/04/19 05:34:45;;;;;;;;;;;8.00;99.90;;;;;;5084377;28;19931;-81
2022/04/19 05:37:11;;;;;;;;;;;8.10;99.90;;;;;;5083292;28;19932;-80
2022/04/19 05:39:38;;;;;;;;;;;8.10;99.90;;;;;;5084822;28;20816;-80
2022/04/19 05:42:04;;;;;;;;;;;8.20;99.90;;;;;;5085657;28;19926;-80
2022/04/19 05:44:31;;;;;;;;;;;8.30;99.90;;;;;;5079987;28;19924;-80
2022/04/19 05:46:58;;;;;;;;;;;8.40;99.90;;;;;;5083158;28;19933;-80
2022/04/19 05:49:24;;;;;;;;;;;8.50;99.90;;;;;;5081633;28;19924;-80
2022/04/19 05:51:51;;;;;;;;;;;8.70;99.90;;;;;;5083652;28;20368;-80
2022/04/19 05:54:17;;;;;;;;;;;8.80;99.90;;;;;;5086386;28;19925;-85
2022/04/19 05:56:44;;;;;;;;;;;8.90;99.90;;;;;;5085046;28;20352;-80
2022/04/19 05:59:10;;;;;;;;;;;9.00;99.90;;;;;;5085447;28;20013;-80
2022/04/19 06:07:14;;;;;;;;;;;9.50;99.90;;;;;;5086706;28;19936;-80
2022/04/19 06:09:41;;;;;;;;;;;9.60;99.90;;;;;;5083373;28;20338;-80
2022/04/19 06:12:07;;;;;;;;;;;9.50;99.90;;;;;;5082726;28;19955;-80
2022/04/19 06:14:34;;;;;;;;;;;9.70;99.90;;;;;;5080838;28;19925;-80
2022/04/19 06:17:00;;;;;;;;;;;9.90;99.90;;;;;;5088407;28;20272;-80
2022/04/19 06:19:27;;;;;;;;;;;9.90;99.90;;;;;;5081339;28;19924;-80
2022/04/19 06:21:55;;;;;;;;;;;10.00;99.90;;;;;;5082445;28;20326;-80
2022/04/19 06:24:21;;;;;;;;;;;10.10;99.90;;;;;;5082181;28;19928;-85
2022/04/19 06:26:48;;;;;;;;;;;10.30;99.90;;;;;;5108225;27;20381;-80
2022/04/19 06:29:14;;;;;;;;;;;10.30;99.90;;;;;;5076793;28;19924;-80
2022/04/19 06:31:41;;;;;;;;;;;10.60;99.90;;;;;;5078502;28;20512;-80
2022/04/19 06:34:08;;;;;;;;;;;10.70;99.90;;;;;;5085409;28;19960;-80
2022/04/19 06:36:34;;;;;;;;;;;10.90;99.90;;;;;;5086733;28;20007;-80
2022/04/19 06:39:01;;;;;;;;;;;11.10;99.90;;;;;;5086524;28;19931;-80
2022/04/19 06:41:27;;;;;;;;;;;11.00;99.90;;;;;;5083483;28;19925;-80
2022/04/19 06:43:57;;;;;;;;;;;11.20;99.90;;;;;;5119010;27;19924;-80
2022/04/19 06:46:24;;;;;;;;;;;11.30;99.90;;;;;;5085375;28;19928;-82
2022/04/19 06:48:51;;;;;;;;;;;11.50;99.90;;;;;;5081238;28;19968;-80
2022/04/19 06:51:18;;;;;;;;;;;11.60;99.90;;;;;;5087596;28;19931;-80
2022/04/19 06:53:44;;;;;;;;;;;11.70;99.90;;;;;;5085131;28;19932;-80
2022/04/19 06:56:11;;;;;;;;;;;11.80;99.90;;;;;;5092641;28;19931;-80
2022/04/19 06:58:39;;;;;;;;;;;11.90;99.90;;;;;;5080167;28;19968;-80
2022/04/19 07:01:06;;;;;;;;;;;12.10;99.90;;;;;;5083860;28;19924;-79
2022/04/19 07:03:33;;;;;;;;;;;12.20;99.90;;;;;;5087385;28;19928;-80
2022/04/19 07:06:00;;;;;;;;;;;12.40;99.30;;;;;;5081581;28;19939;-81
2022/04/19 07:08:26;;;;;;;;;;;12.50;98.90;;;;;;5089383;28;19931;-81
2022/04/19 07:10:53;;;;;;;;;;;12.50;99.00;;;;;;5079409;28;19935;-81
2022/04/19 07:13:19;;;;;;;;;;;12.60;98.50;;;;;;5078642;28;19940;-83
2022/04/19 07:15:46;;;;;;;;;;;12.70;97.90;;;;;;5081077;28;19928;-83
2022/04/19 07:18:13;;;;;;;;;;;12.70;97.50;;;;;;5099503;27;20024;-83
2022/04/19 07:28:52;;;;;;;;;;;13.10;98.00;;;;;;5081531;28;19924;-82
2022/04/19 07:31:19;;;;;;;;;;;13.20;96.20;;;;;;5092012;28;20017;-82
2022/04/19 07:33:46;;;;;;;;;;;13.20;96.80;;;;;;5087396;28;19959;-82
2022/04/19 07:36:12;;;;;;;;;;;13.40;96.50;;;;;;5088109;28;19937;-82
2022/04/19 07:38:39;;;;;;;;;;;13.30;95.40;;;;;;5078096;28;19967;-80
2022/04/19 07:41:06;;;;;;;;;;;13.30;94.90;;;;;;5083077;28;19933;-77
2022/04/19 07:43:33;;;;;;;;;;;13.40;95.00;;;;;;5084365;28;19931;-83
2022/04/19 07:45:59;;;;;;;;;;;13.60;95.00;;;;;;5066313;28;19931;-83
2022/04/19 07:48:26;;;;;;;;;;;13.60;95.10;;;;;;5072294;28;19931;-90
2022/04/19 07:50:53;;;;;;;;;;;13.70;94.30;;;;;;5071331;28;19925;-83
2022/04/19 07:53:19;;;;;;;;;;;13.80;94.30;;;;;;5071932;28;19932;-85
2022/04/19 07:55:46;;;;;;;;;;;13.90;93.30;;;;;;5070574;28;20007;-84
2022/04/19 07:58:13;;;;;;;;;;;14.00;92.80;;;;;;5083843;28;19928;-84
2022/04/19 08:00:39;;;;;;;;;;;14.00;91.70;;;;;;5074633;28;19929;-84
2022/04/19 08:03:06;;;;;;;;;;;14.20;93.10;;;;;;5075687;28;20385;-85
2022/04/19 08:05:32;;;;;;;;;;;14.40;92.30;;;;;;5060964;28;19947;-84
2022/04/19 08:07:59;;;;;;;;;;;14.20;90.00;;;;;;5072347;28;20501;-83
2022/04/19 08:10:26;;;;;;;;;;;14.30;90.40;;;;;;5072190;28;19925;-82
2022/04/19 08:12:52;;;;;;;;;;;14.10;85.00;;;;;;5075310;28;20379;-82
2022/04/19 08:15:19;;;;;;;;;;;14.20;88.90;;;;;;5071996;28;19931;-81
2022/04/19 08:17:46;;;;;;;;;;;14.20;84.60;;;;;;5077534;28;19932;-83
2022/04/19 08:20:13;;;;;;;;;;;14.30;87.10;;;;;;5074082;28;19935;-85
2022/04/19 08:22:40;;;;;;;;;;;14.20;86.50;;;;;;5072432;28;19931;-82
2022/04/19 08:25:07;;;;;;;;;;;14.50;88.30;;;;;;5104099;28;19925;-82
2022/04/19 08:27:33;;;;;;;;;;;14.70;86.30;;;;;;5069933;28;19940;-82
2022/04/19 08:30:02;;;;;;;;;;;14.50;83.30;;;;;;5073070;28;20364;-82
2022/04/19 08:32:29;;;;;;;;;;;14.50;85.70;;;;;;5072754;28;20388;-88
2022/04/19 08:34:56;;;;;;;;;;;14.70;87.10;;;;;;5073204;28;19972;-82
2022/04/19 08:37:23;;;;;;;;;;;14.80;87.90;;;;;;5067913;28;19925;-81
2022/04/19 08:39:49;;;;;;;;;;;14.70;82.20;;;;;;5072310;28;19924;-82
2022/04/19 08:42:16;;;;;;;;;;;14.90;86.40;;;;;;5067834;28;19924;-87
2022/04/19 08:44:44;;;;;;;;;;;14.80;81.90;;;;;;5071701;28;19932;-82
2022/04/19 08:47:11;;;;;;;;;;;14.90;83.70;;;;;;5072877;28;19924;-82
2022/04/19 08:49:38;;;;;;;;;;;14.90;83.40;;;;;;5071346;28;20387;-82
2022/04/19 08:52:04;;;;;;;;;;;15.10;81.70;;;;;;5071254;28;19939;-82
2022/04/19 08:57:30;;;;;;;;;;;15.10;78.60;;;;;;5072004;28;19924;-85
2022/04/19 08:59:57;;;;;;;;;;;15.20;77.60;;;;;;5063431;28;20380;-84
2022/04/19 09:02:24;;;;;;;;;;;15.40;78.70;;;;;;5070490;28;19924;-83
2022/04/19 09:04:51;;;;;;;;;;;15.50;75.20;;;;;;5061056;28;19925;-82
2022/04/19 09:07:18;;;;;;;;;;;15.20;74.20;;;;;;5071828;28;20964;-83
2022/04/19 09:09:44;;;;;;;;;;;15.10;76.20;;;;;;5067309;28;19924;-82
2022/04/19 09:12:11;;;;;;;;;;;15.30;75.80;;;;;;5070243;28;19970;-85
2022/04/19 09:14:38;;;;;;;;;;;15.40;76.40;;;;;;5071975;28;19924;-85
2022/04/19 09:17:04;;;;;;;;;;;15.20;75.00;;;;;;5069240;28;20284;-82
2022/04/19 09:19:31;;;;;;;;;;;15.40;74.10;;;;;;5072645;28;19925;-81
2022/04/19 09:21:57;;;;;;;;;;;15.40;74.40;;;;;;5065229;28;19925;-77
2022/04/19 09:24:25;;;;;;;;;;;15.30;73.00;;;;;;5071293;28;19975;-82
2022/04/19 09:26:51;;;;;;;;;;;15.30;75.20;;;;;;5070607;28;19931;-82
2022/04/19 09:29:19;;;;;;;;;;;15.20;76.60;;;;;;5071172;28;19931;-81
2022/04/19 09:31:45;;;;;;;;;;;15.50;75.30;;;;;;5070545;28;19986;-84
2022/04/19 09:34:12;;;;;;;;;;;15.60;74.40;;;;;;5073028;28;19932;-82
2022/04/19 09:36:38;;;;;;;;;;;15.40;74.60;;;;;;5066054;28;19924;-83
2022/04/19 09:39:05;;;;;;;;;;;15.60;74.60;;;;;;5069205;28;19992;-82
2022/04/19 09:41:31;;;;;;;;;;;15.70;75.00;;;;;;5072258;28;19924;-83
2022/04/19 09:43:58;;;;;;;;;;;15.70;76.50;;;;;;5072130;28;19925;-82
2022/04/19 09:46:24;;;;;;;;;;;15.70;75.10;;;;;;5069770;28;19924;-78
2022/04/19 09:48:51;;;;;;;;;;;15.80;74.60;;;;;;5071230;28;19925;-82
2022/04/19 09:51:17;;;;;;;;;;;15.80;71.80;;;;;;5067618;28;19931;-84
2022/04/19 09:53:44;;;;;;;;;;;16.00;72.20;;;;;;5070961;28;19932;-84
2022/04/19 09:56:11;;;;;;;;;;;15.80;71.80;;;;;;5060624;28;19925;-83
2022/04/19 09:58:37;;;;;;;;;;;15.90;74.20;;;;;;5059670;28;20348;-88
2022/04/19 10:01:04;;;;;;;;;;;15.80;72.20;;;;;;5062100;28;19925;-83
2022/04/19 10:09:04;;;;;;;;;;;16.00;70.80;;;;;;5062534;28;19932;-83
2022/04/19 10:11:31;;;;;;;;;;;16.00;71.10;;;;;;5063838;28;19924;-84
2022/04/19 10:13:58;;;;;;;;;;;16.00;74.50;;;;;;5064273;28;19935;-83
2022/04/19 10:16:24;;;;;;;;;;;16.10;71.30;;;;;;5070014;28;19925;-84
2022/04/19 10:18:51;;;;;;;;;;;16.00;71.10;;;;;;5079446;28;19924;-82
2022/04/19 10:21:17;;;;;;;;;;;15.90;70.20;;;;;;5082034;28;19931;-82
2022/04/19 10:23:44;;;;;;;;;;;15.80;69.80;;;;;;5084030;28;20021;-83
2022/04/19 10:26:11;;;;;;;;;;;15.80;69.20;;;;;;5080271;28;19924;-83
2022/04/19 10:28:38;;;;;;;;;;;15.90;70.40;;;;;;5078350;28;20387;-88
2022/04/19 10:31:05;;;;;;;;;;;16.10;72.50;;;;;;5071554;28;19924;-82
2022/04/19 10:33:31;;;;;;;;;;;16.20;71.10;;;;;;5072452;28;19970;-83
2022/04/19 10:35:58;;;;;;;;;;;16.40;69.60;;;;;;5073752;28;19929;-83
2022/04/19 10:38:24;;;;;;;;;;;16.30;69.80;;;;;;5079889;28;19928;-83
2022/04/19 10:40:51;;;;;;;;;;;16.30;68.90;;;;;;5086290;28;19924;-82
2022/04/19 10:43:18;;;;;;;;;;;16.40;70.70;;;;;;5079533;28;19932;-82
2022/04/19 10:45:46;;;;;;;;;;;16.30;69.40;;;;;;5084430;28;19932;-85
2022/04/19 10:48:14;;;;;;;;;;;16.30;68.30;;;;;;5078723;28;19928;-83
2022/04/19 10:50:44;;;;;;;;;;;16.40;67.20;;;;;;5082439;28;19924;-88
2022/04/19 10:53:10;;;;;;;;;;;16.50;67.60;;;;;;5076758;28;19947;-83
2022/04/19 10:55:37;;;;;;;;;;;16.40;69.60;;;;;;5084878;28;19928;-83
2022/04/19 10:58:20;;;;;;;;;;;16.30;70.00;;;;;;5084633;28;19924;-82
2022/04/19 11:00:47;;;;;;;;;;;16.20;67.70;;;;;;5080478;28;20424;-86
2022/04/19 11:03:13;;;;;;;;;;;16.30;67.10;;;;;;5087604;28;19924;-83
2022/04/19 11:05:42;;;;;;;;;;;16.40;67.70;;;;;;5085046;28;19930;-86
2022/04/19 11:08:08;;;;;;;;;;;16.40;69.30;;;;;;5083040;28;19931;-83
2022/04/19 11:10:35;;;;;;;;;;;16.30;70.10;;;;;;5081004;28;19924;-83
2022/04/19 11:13:02;;;;;;;;;;;16.30;71.30;;;;;;5081742;28;19931;-82
2022/04/19 11:15:28;;;;;;;;;;;16.40;68.80;;;;;;5084359;28;19931;-83
2022/04/19 11:17:55;;;;;;;;;;;16.40;68.50;;;;;;5082027;28;19928;-83
2022/04/19 11:20:21;;;;;;;;;;;16.40;69.10;;;;;;5083280;28;19925;-87
2022/04/19 11:22:48;;;;;;;;;;;16.50;69.80;;;;;;5066058;28;20330;-83
2022/04/19 11:25:14;;;;;;;;;;;16.70;70.30;;;;;;5069336;28;19932;-81
2022/04/19 11:27:41;;;;;;;;;;;16.70;69.20;;;;;;5064005;28;19928;-82
2022/04/19 11:30:08;;;;;;;;;;;16.50;70.80;;;;;;5072664;28;20015;-82
2022/04/19 11:32:35;;;;;;;;;;;16.60;69.40;;;;;;5061895;28;19924;-82
2022/04/19 11:35:04;;;;;;;;;;;16.70;68.50;;;;;;5071170;28;19925;-82
2022/04/19 11:37:30;;;;;;;;;;;16.70;68.10;;;;;;5068282;28;19924;-84
2022/04/19 11:48:06;;;;;;;;;;;16.50;65.80;;;;;;5068928;28;19991;-82
2022/04/19 11:50:32;;;;;;;;;;;16.60;69.50;;;;;;5074014;28;20323;-82
2022/04/19 11:52:59;;;;;;;;;;;16.60;66.00;;;;;;5073619;28;20376;-83
2022/04/19 11:55:27;;;;;;;;;;;16.60;68.00;;;;;;5077442;28;19946;-82
2022/04/19 11:57:54;;;;;;;;;;;16.70;65.90;;;;;;5072517;28;20364;-82
2022/04/19 12:00:20;;;;;;;;;;;16.70;67.20;;;;;;5072536;28;20395;-82
2022/04/19 12:02:50;;;;;;;;;;;16.60;65.50;;;;;;5067018;28;19925;-87
2022/04/19 12:05:16;;;;;;;;;;;16.50;66.20;;;;;;5087838;28;19924;-82
2022/04/19 12:07:43;;;;;;;;;;;16.60;65.30;;;;;;5066961;28;20334;-82
2022/04/19 12:10:10;;;;;;;;;;;16.70;68.50;;;;;;5072978;28;20284;-81
2022/04/19 12:12:37;;;;;;;;;;;16.70;64.50;;;;;;5069916;28;19931;-82
2022/04/19 12:15:04;;;;;;;;;;;16.70;65.50;;;;;;5071367;28;19925;-82
2022/04/19 12:17:31;;;;;;;;;;;16.60;64.30;;;;;;5072492;28;19932;-82
2022/04/19 12:19:57;;;;;;;;;;;16.70;65.30;;;;;;5065365;28;19973;-82
2022/04/19 12:22:24;;;;;;;;;;;16.50;67.10;;;;;;5073302;28;19924;-82
2022/04/19 12:24:53;;;;;;;;;;;16.60;67.70;;;;;;5071910;28;19924;-83
2022/04/19 12:27:20;;;;;;;;;;;16.70;66.70;;;;;;5071417;28;19924;-81
2022/04/19 12:29:46;;;;;;;;;;;16.70;66.80;;;;;;5074102;28;19929;-84
2022/04/19 12:32:13;;;;;;;;;;;16.70;66.00;;;;;;5054876;28;19925;-82
2022/04/19 12:34:39;;;;;;;;;;;16.70;65.40;;;;;;5068409;28;19925;-82
2022/04/19 12:37:06;;;;;;;;;;;16.80;65.90;;;;;;5065938;28;19990;-82
2022/04/19 12:39:32;;;;;;;;;;;16.70;64.60;;;;;;5067875;28;19930;-81
2022/04/19 12:41:59;;;;;;;;;;;16.70;66.40;;;;;;5071877;28;20364;-82
2022/04/19 12:44:25;;;;;;;;;;;16.70;66.10;;;;;;5106340;28;19931;-82
2022/04/19 12:46:52;;;;;;;;;;;16.70;64.20;;;;;;5072634;28;19924;-83
2022/04/19 12:49:19;;;;;;;;;;;16.70;66.00;;;;;;5067503;28;19925;-82
2022/04/19 12:51:46;;;;;;;;;;;16.70;63.90;;;;;;5054455;28;20407;-83
2022/04/19 12:54:13;;;;;;;;;;;16.80;64.80;;;;;;5064840;28;20294;-83
2022/04/19 12:56:39;;;;;;;;;;;16.70;64.20;;;;;;5072499;28;19971;-83
2022/04/19 12:59:06;;;;;;;;;;;16.80;63.30;;;;;;5064212;28;19932;-84
2022/04/19 13:01:32;;;;;;;;;;;16.90;62.90;;;;;;5069090;28;19947;-82
2022/04/19 13:03:59;;;;;;;;;;;16.90;63.50;;;;;;5058993;28;19924;-83
2022/04/19 13:14:38;;;;;;;;;;;16.80;65.90;;;;;;5070902;28;20059;-81
2022/04/19 13:17:05;;;;;;;;;;;16.90;62.40;;;;;;5070976;28;19931;-82
2022/04/19 13:19:31;;;;;;;;;;;16.90;63.70;;;;;;5067818;28;19929;-83
2022/04/19 13:21:58;;;;;;;;;;;16.90;62.50;;;;;;5071275;28;20015;-83
2022/04/19 13:24:24;;;;;;;;;;;16.90;63.20;;;;;;5071121;28;19939;-85
2022/04/19 13:26:51;;;;;;;;;;;16.90;65.00;;;;;;5071691;28;19924;-84
2022/04/19 13:29:18;;;;;;;;;;;17.00;66.00;;;;;;5071216;28;20010;-83
2022/04/19 13:31:44;;;;;;;;;;;16.90;63.80;;;;;;5092192;28;19932;-81
2022/04/19 13:34:11;;;;;;;;;;;16.70;63.60;;;;;;5071953;28;20380;-81
2022/04/19 13:36:37;;;;;;;;;;;16.70;62.00;;;;;;5072178;28;19931;-81
2022/04/19 13:39:05;;;;;;;;;;;16.80;63.70;;;;;;5064834;28;19925;-81
2022/04/19 13:41:31;;;;;;;;;;;16.80;63.10;;;;;;5072584;28;19975;-88
2022/04/19 13:43:58;;;;;;;;;;;17.00;64.90;;;;;;5067730;28;19928;-85
2022/04/19 13:46:24;;;;;;;;;;;16.90;64.20;;;;;;5072235;28;19931;-81
2022/04/19 13:48:51;;;;;;;;;;;17.00;65.10;;;;;;5065735;28;19928;-82
2022/04/19 13:51:18;;;;;;;;;;;17.10;65.40;;;;;;5070214;28;19928;-82
2022/04/19 13:53:44;;;;;;;;;;;17.10;64.40;;;;;;5056931;28;19925;-82
2022/04/19 13:56:11;;;;;;;;;;;17.20;65.10;;;;;;5087907;28;19936;-84
2022/04/19 13:58:37;;;;;;;;;;;17.10;67.10;;;;;;5071243;28;19925;-82
2022/04/19 14:01:04;;;;;;;;;;;17.10;63.70;;;;;;5068723;28;19931;-80
2022/04/19 14:03:30;;;;;;;;;;;17.20;62.20;;;;;;5072326;28;20364;-84
2022/04/19 14:05:57;;;;;;;;;;;17.20;63.20;;;;;;5071237;28;20299;-85
2022/04/19 14:08:23;;;;;;;;;;;17.20;62.30;;;;;;5069511;28;20280;-83
2022/04/19 14:10:50;;;;;;;;;;;17.00;64.30;;;;;;5065157;28;19925;-83
2022/04/19 14:13:16;;;;;;;;;;;17.00;64.60;;;;;;5071585;28;19927;-84
2022/04/19 14:15:44;;;;;;;;;;;17.00;61.50;;;;;;5081535;28;19932;-84
2022/04/19 14:18:11;;;;;;;;;;;17.10;64.90;;;;;;5072116;28;19925;-85
2022/04/19 14:20:37;;;;;;;;;;;17.20;62.80;;;;;;5077369;28;19935;-86
2022/04/19 14:23:04;;;;;;;;;;;17.20;60.60;;;;;;5077710;28;19928;-85
2022/04/19 14:25:30;;;;;;;;;;;17.30;61.50;;;;;;5071394;28;19952;-85
2022/04/19 14:27:57;;;;;;;;;;;17.30;62.40;;;;;;5058009;28;20276;-88
2022/04/19 14:33:19;;;;;;;;;;;17.00;62.20;;;;;;5070927;28;20284;-83
2022/04/19 14:35:45;;;;;;;;;;;16.90;61.40;;;;;;5069183;28;19982;-83
2022/04/19 14:38:12;;;;;;;;;;;16.80;62.80;;;;;;5068267;28;19925;-83
2022/04/19 14:40:38;;;;;;;;;;;16.90;61.10;;;;;;5082952;28;20011;-83
2022/04/19 14:43:05;;;;;;;;;;;17.00;64.50;;;;;;5070606;28;19925;-83
2022/04/19 14:45:32;;;;;;;;;;;17.00;62.70;;;;;;5070742;28;19928;-84
2022/04/19 14:47:58;;;;;;;;;;;17.10;63.80;;;;;;5068447;28;19928;-87
2022/04/19 14:50:25;;;;;;;;;;;17.30;62.80;;;;;;5068775;28;19931;-83
2022/04/19 14:52:50;;;;;;;;;;;17.20;63.20;;;;;;5076772;28;19925;-83
2022/04/19 14:55:17;;;;;;;;;;;17.10;62.60;;;;;;5065557;28;19924;-83
2022/04/19 14:57:43;;;;;;;;;;;17.10;62.40;;;;;;5077610;28;20015;-83
2022/04/19 15:00:10;;;;;;;;;;;17.10;61.80;;;;;;5074880;28;19932;-83
2022/04/19 15:02:36;;;;;;;;;;;16.80;60.80;;;;;;5064368;28;19935;-83
2022/04/19 15:05:05;;;;;;;;;;;16.90;62.30;;;;;;5070493;28;20021;-83
2022/04/19 15:07:31;;;;;;;;;;;16.90;62.90;;;;;;5072867;28;20215;-84
2022/04/19 15:09:58;;;;;;;;;;;16.90;64.00;;;;;;5064806;28;19928;-82
2022/04/19 15:12:26;;;;;;;;;;;16.90;64.90;;;;;;5070485;28;19928;-83